Du har inga inställningar för hoppväder.nu

Hoppväder.nu

Senast uppdaterat 06:16

UTC-tid

2018-08-19 kl. 04:16


Sol och måne

Solen går upp 5:48 och går ner 20:26 (beräknade cirkatider)
Nästa fullmåne blir om 7 dagar (2018-08-26)

METAR

ESMK (Everöd)
(26 minuter sedan)
ESMK 190350Z AUTO 25008KT 9999 OVC035/// 18/15 Q1017=



ESMS (Malmö)
(26 minuter sedan)
ESMS 190350Z 25008KT 9999 SCT110 17/15 Q1018=



ESMX (Växjö)
(26 minuter sedan)
ESMX 190350Z AUTO 22008KT 200V260 9999 BKN013/// BKN016/// OVC019/// 17/14 Q1015=



ESDF (Ronneby)
(26 minuter sedan)
ESDF 190350Z AUTO 24007KT 210V270 9999 SCT026/// BKN036/// OVC180/// 18/15 Q1016=



EKRN (Rønne, Bornholm)
(26 minuter sedan)
EKRN 190350Z AUTO 26015KT 9999NDV BKN130/// 19/16 Q1019=



TAF

ESMK (Everöd)
ESMK



ESMS (Malmö)
(1750 minuter sedan)
ESMS 182306Z 1900/1924 24012KT 9999 BKN030=



ESMX (Växjö)
(9 minuter sedan)
ESMX AAA 190407Z 1904/1912 22009KT 9999 BKN015 TEMPO 1904/1908 BKN012 TEMPO 1905/1912 SHRA=



ESDF (Ronneby)
ESDF



EKRN (Rønne, Bornholm)
EKRN





Kodnycklar till TAF och METAR






LHP

(Everöd är område J3b i Hela Område E)

ÄNDRAD ÖVERSIKT FÖR OMRÅDE E UTFÄRDAD 190328
GÄLLANDE DEN 19 AUGUSTI 2018 MELLAN 04 OCH 12 UTC


Väderöversikt
Se väderöversikt för område A+B

Sikt under 5 kilometer eller molnbas under 1000 fot
04-12UTC: I hela området


Måttlig eller svår isbildning
06-12UTC: I hela området


Måttlig eller svår turbulens
Väntas inte förekomma under perioden



ÄNDRAD PROGNOS FÖR OMRÅDE J UTFÄRDAD 190328
GÄLLANDE DEN 19 AUGUSTI 2018 MELLAN 04 OCH 12 UTC

Måttlig eller svår turbulens
04-12UTC: I hela området: Väntas inte förekomma under perioden

Måttlig eller svår isbildning
04-06UTC: Område J1a,J1b,J1c,J2a,J2b,J3a,J3b,J3c,J4b: Väntas inte förekomma under perioden

04-12UTC: Område J4a,J4c: Väntas inte förekomma under perioden

06-12UTC: Område J1a,J1b,J1c,J2a,J2b,J3a,J3b,J3c,J4b: måttlig isbildning FL095 - > FL125


Sikt/Väder/Moln
04-06UTC: Område J1a,J2a: Sikt 3km - >8km i regn. Molnbas 500ft - 4000ft.
Område J1b,J2b,J3a: Sikt >8km, lokalt 5km - 8km i regn. Molnbas 2000ft - 4000ft, lokalt 1000ft - 1500ft.

04-12UTC: Område J1c,J3b,J3c,J4b: Sikt 5km - >8km i regn. Molnbas 1000ft - >4000ft.
Område J4a,J4c: Sikt >8km. Molnbas >4000ft, lokalt 1500ft - 2000ft.

06-08UTC: Område J1a,J2a: Sikt >8km, lokalt 3km - 5km i regn. Molnbas 2000ft - 4000ft, lokalt 500ft - 1000ft.

06-12UTC: Område J1b,J2b,J3a: Sikt 3km - >8km i regn. Molnbas 500ft - 4000ft.

08-12UTC: Område J1a,J2a: Sikt >8km i regn, lokalt 3km - 5km. Molnbas 2000ft - 4000ft, lokalt 500ft - 1000ft.


Molnöversida
04-06UTC: Område J1a,J1b,J1c,J2a,J2b,J3a,J3b,J3c,J4b: Molnöversida FL100.

04-12UTC: Område J4a,J4c: Molnöversida FL100.

06-12UTC: Område J1a,J1b,J1c,J2a,J2b,J3a,J3b,J3c,J4b: Molnöversida > FL125.


CB/TCU Moln
04-12UTC: I hela området: Väntas inte förekomma under perioden

Nollgradersisoterm
04-12UTC: Noll grader FL095 - FL120.

Vind vid marken
04-06UTC: Område J3c: SV-V/4-14 knop, byar upp till 22 knop.
Område J2b: SV-V/4-18 knop, byar upp till 27 knop.
Område J4a: V/5-18 knop, byar upp till 25 knop.
Område J4b: SV-V/4-19 knop, byar upp till 25 knop.
Område J4c: V/10-20 knop, byar upp till 28 knop.
Område J1b: SV-V/8-19 knop, byar upp till 27 knop.
Område J1a: SV-V/3-24 knop, byar upp till 33 knop.
Område J1c: SV-V/6-15 knop, byar upp till 22 knop.
Område J3b: SV-V/3-8 knop, byar upp till 18 knop.
Område J2a: SV-V/2-19 knop, byar upp till 29 knop.
Område J3a: SV-V/3-10 knop, byar upp till 19 knop.

06-08UTC: Område J1b: SV-V/7-18 knop, byar upp till 26 knop.
Område J4a: SV-V/8-16 knop, byar upp till 21 knop.
Område J1c: SV-V/7-13 knop, byar upp till 20 knop.
Område J3b: SV-V/5-9 knop, byar upp till 18 knop.
Område J2a: SV-V/1-18 knop, byar upp till 26 knop.
Område J1a: V/2-18 knop, byar upp till 28 knop.
Område J3c: SV-V/6-15 knop, byar upp till 21 knop.
Område J4b: SV-V/6-17 knop, byar upp till 22 knop.
Område J3a: SV-V/4-9 knop, byar upp till 20 knop.
Område J4c: V/8-17 knop, byar upp till 24 knop.
Område J2b: SV-V/4-17 knop, byar upp till 25 knop.

08-10UTC: Område J1b: SV-V/7-16 knop, byar upp till 22 knop.
Område J2a: SV-V/0-16 knop, byar upp till 22 knop.
Område J3a: SV/3-11 knop, byar upp till 18 knop.
Område J2b: SV/4-16 knop, byar upp till 23 knop.
Område J1a: V/0-15 knop, byar upp till 21 knop.
Område J4a: SV-V/7-16 knop, byar upp till 20 knop.
Område J3b: SV-V/4-11 knop, byar upp till 18 knop.

08-12UTC: Område J3c: SV-V/5-13 knop, byar upp till 20 knop.
Område J4b: SV-V/7-16 knop, byar upp till 20 knop.
Område J4c: SV-V/8-16 knop, byar upp till 23 knop.
Område J1c: SV/6-14 knop, byar upp till 18 knop.

10-12UTC: Område J2b: SV/3-16 knop, byar upp till 21 knop.
Område J4a: SV-V/8-16 knop, byar upp till 21 knop.
Område J3a: SV-V/3-9 knop, byar upp till 18 knop.
Område J2a: SV/0-18 knop, byar upp till 23 knop.
Område J1a: SV-V/0-18 knop, byar upp till 22 knop.
Område J1b: SV/7-18 knop, byar upp till 22 knop.
Område J3b: SV-V/3-10 knop, byar upp till 19 knop.


Vind och temperatur
2000ft:
04-06UTC: 270/34kt +11.
06-08UTC: 270/28kt +11.
08-10UTC: 260/21kt +11.
10-12UTC: 250/22kt +12.

FL50:
04-08UTC: 280/34kt +7.
08-10UTC: 260/33kt +7.
10-12UTC: 250/27kt +7.

FL100:
04-06UTC: 270/51kt +0.
06-08UTC: 270/44kt -1.
08-10UTC: 270/41kt -1.
10-12UTC: 260/41kt -1.

Lägsta QNH
1014 hPa.

OBS! endast utbredd måttlig eller svår isbildning och turbulens prognostiseras i LLF.
Avsaknad av isbildning och turbulens i prognosen utesluter inte förekomst av lätt isbildning och turbulens.
För indikation på lätt isbildning, var vänlig kontrollera om prognosen för molntopp ligger högre än nollgradersisotermen.
Förekomst av TCU eller CB medför alltid en risk för måttlig eller svår isbildning och turbulens även om det inte framgår explicit av prognosen.





Spotting

Hur fungerar spotthjälpen och Vindkartan?

Markvind är ca 2-4 m/s med byar på 9 m/s.
Vind på 600 m ca 17 m/s.
Vind på 1500 m ca 17 m/s.
Vind på 3000 m ca 26 m/s.
KalleDavid flyger ca 17 m/s över marken på finalen.
Du driver ca 1181 m bakåt i frifall. (1574 m)
Lämplig spot är 51 sekunder eller 892 m efter gropen.
(73 s eller 1277 m)
För små grupper eller ensamhoppare bör man vänta 9-12 sekunder mellan grupperna.
För större grupper bör man vänta 17-21 sekunder mellan grupperna.


Vindkartan

Senast uppdaterad 06:16




All data kommer från LFV.se